sensor_id;sensor_type;location;lat;lon;timestamp;pressure;altitude;pressure_sealevel;temperature;humidity
55656;BME280;41530;52.382;5.270;2023-01-23T00:00:54;103871.75;;;13.14;51.33
55656;BME280;41530;52.382;5.270;2023-01-23T00:03:22;103870.00;;;13.14;50.97
55656;BME280;41530;52.382;5.270;2023-01-23T00:06:00;103864.72;;;13.13;51.06
55656;BME280;41530;52.382;5.270;2023-01-23T00:08:27;103864.72;;;13.13;51.20
55656;BME280;41530;52.382;5.270;2023-01-23T00:10:54;103871.78;;;13.12;50.90
55656;BME280;41530;52.382;5.270;2023-01-23T00:13:22;103873.56;;;13.12;51.20
55656;BME280;41530;52.382;5.270;2023-01-23T00:15:49;103866.50;;;13.12;51.11
55656;BME280;41530;52.382;5.270;2023-01-23T00:18:16;103860.34;;;13.12;51.05
55656;BME280;41530;52.382;5.270;2023-01-23T00:20:42;103856.84;;;13.11;51.00
55656;BME280;41530;52.382;5.270;2023-01-23T00:23:10;103856.88;;;13.10;51.11
55656;BME280;41530;52.382;5.270;2023-01-23T00:25:37;103856.84;;;13.11;51.19
55656;BME280;41530;52.382;5.270;2023-01-23T00:28:04;103855.97;;;13.11;51.12
55656;BME280;41530;52.382;5.270;2023-01-23T00:30:32;103854.25;;;13.10;51.09
55656;BME280;41530;52.382;5.270;2023-01-23T00:32:59;103843.66;;;13.10;50.98
55656;BME280;41530;52.382;5.270;2023-01-23T00:35:26;103852.50;;;13.09;51.10
55656;BME280;41530;52.382;5.270;2023-01-23T00:37:53;103850.72;;;13.09;50.83
55656;BME280;41530;52.382;5.270;2023-01-23T00:40:20;103859.53;;;13.10;51.01
55656;BME280;41530;52.382;5.270;2023-01-23T00:42:47;103853.38;;;13.09;50.86
55656;BME280;41530;52.382;5.270;2023-01-23T00:45:14;103849.00;;;13.08;51.07
55656;BME280;41530;52.382;5.270;2023-01-23T00:47:41;103847.22;;;13.09;51.18
55656;BME280;41530;52.382;5.270;2023-01-23T00:50:09;103838.47;;;13.07;51.08
55656;BME280;41530;52.382;5.270;2023-01-23T00:52:36;103834.97;;;13.06;50.79
55656;BME280;41530;52.382;5.270;2023-01-23T00:55:04;103837.56;;;13.08;51.06
55656;BME280;41530;52.382;5.270;2023-01-23T00:57:31;103833.19;;;13.07;51.11
55656;BME280;41530;52.382;5.270;2023-01-23T00:59:58;103829.69;;;13.06;51.09
55656;BME280;41530;52.382;5.270;2023-01-23T01:02:26;103822.66;;;13.05;50.93
55656;BME280;41530;52.382;5.270;2023-01-23T01:04:53;103824.47;;;13.05;51.30
55656;BME280;41530;52.382;5.270;2023-01-23T01:07:20;103830.59;;;13.05;51.16
55656;BME280;41530;52.382;5.270;2023-01-23T01:09:47;103833.22;;;13.05;51.00
55656;BME280;41530;52.382;5.270;2023-01-23T01:12:14;103835.03;;;13.05;51.07
55656;BME280;41530;52.382;5.270;2023-01-23T01:14:41;103832.41;;;13.05;51.16
55656;BME280;41530;52.382;5.270;2023-01-23T01:17:08;103853.53;;;13.05;51.32
55656;BME280;41530;52.382;5.270;2023-01-23T01:19:35;103843.88;;;13.04;51.17
55656;BME280;41530;52.382;5.270;2023-01-23T01:22:02;103842.09;;;13.04;51.11
55656;BME280;41530;52.382;5.270;2023-01-23T01:24:28;103846.56;;;13.02;50.92
55656;BME280;41530;52.382;5.270;2023-01-23T01:26:56;103845.66;;;13.03;51.18
55656;BME280;41530;52.382;5.270;2023-01-23T01:29:22;103843.00;;;13.03;51.02
55656;BME280;41530;52.382;5.270;2023-01-23T01:31:49;103847.44;;;13.03;51.14
55656;BME280;41530;52.382;5.270;2023-01-23T01:34:16;103842.16;;;13.03;50.98
55656;BME280;41530;52.382;5.270;2023-01-23T01:36:43;103831.56;;;13.03;51.06
55656;BME280;41530;52.382;5.270;2023-01-23T01:39:10;103827.25;;;13.00;51.04
55656;BME280;41530;52.382;5.270;2023-01-23T01:41:36;103838.69;;;13.01;50.87
55656;BME280;41530;52.382;5.270;2023-01-23T01:44:03;103843.09;;;13.00;51.10
55656;BME280;41530;52.382;5.270;2023-01-23T01:46:30;103841.34;;;13.01;51.01
55656;BME280;41530;52.382;5.270;2023-01-23T01:51:47;103838.72;;;12.99;50.68
55656;BME280;41530;52.382;5.270;2023-01-23T01:54:30;103841.41;;;12.98;50.75
55656;BME280;41530;52.382;5.270;2023-01-23T01:59:59;103852.91;;;12.97;50.91
55656;BME280;41530;52.382;5.270;2023-01-23T02:02:36;103851.13;;;12.97;51.12
55656;BME280;41530;52.382;5.270;2023-01-23T02:05:29;103856.38;;;12.99;50.85
55656;BME280;41530;52.382;5.270;2023-01-23T02:07:56;103859.91;;;12.98;51.02
55656;BME280;41530;52.382;5.270;2023-01-23T02:10:26;103861.69;;;12.97;50.95
55656;BME280;41530;52.382;5.270;2023-01-23T02:12:53;103859.97;;;12.96;50.94
55656;BME280;41530;52.382;5.270;2023-01-23T02:15:21;103869.63;;;12.97;50.79
55656;BME280;41530;52.382;5.270;2023-01-23T02:17:50;103867.91;;;12.96;51.20
55656;BME280;41530;52.382;5.270;2023-01-23T02:20:26;103871.44;;;12.95;51.15
55656;BME280;41530;52.382;5.270;2023-01-23T02:25:59;103874.91;;;12.97;50.70
55656;BME280;41530;52.382;5.270;2023-01-23T02:28:40;103870.59;;;12.95;50.80
55656;BME280;41530;52.382;5.270;2023-01-23T02:31:08;103879.41;;;12.94;50.75
55656;BME280;41530;52.382;5.270;2023-01-23T02:36:04;103866.25;;;12.92;50.84
55656;BME280;41530;52.382;5.270;2023-01-23T02:38:36;103876.72;;;12.95;50.81
55656;BME280;41530;52.382;5.270;2023-01-23T02:41:06;103879.38;;;12.95;50.55
55656;BME280;41530;52.382;5.270;2023-01-23T02:43:36;103878.56;;;12.93;50.95
55656;BME280;41530;52.382;5.270;2023-01-23T02:46:04;103881.16;;;12.95;50.92
55656;BME280;41530;52.382;5.270;2023-01-23T02:48:32;103863.69;;;12.91;50.79
55656;BME280;41530;52.382;5.270;2023-01-23T02:50:59;103876.78;;;12.94;50.80
55656;BME280;41530;52.382;5.270;2023-01-23T02:53:26;103882.94;;;12.94;50.79
55656;BME280;41530;52.382;5.270;2023-01-23T02:55:53;103887.31;;;12.95;50.77
55656;BME280;41530;52.382;5.270;2023-01-23T02:58:21;103886.53;;;12.92;50.83
55656;BME280;41530;52.382;5.270;2023-01-23T03:01:07;103889.13;;;12.93;50.73
55656;BME280;41530;52.382;5.270;2023-01-23T03:03:34;103881.38;;;12.89;50.79
55656;BME280;41530;52.382;5.270;2023-01-23T03:06:01;103888.25;;;12.93;50.57
55656;BME280;41530;52.382;5.270;2023-01-23T03:08:31;103887.41;;;12.92;50.72
55656;BME280;41530;52.382;5.270;2023-01-23T03:11:02;103890.03;;;12.92;50.95
55656;BME280;41530;52.382;5.270;2023-01-23T03:13:29;103883.13;;;12.88;50.61
55656;BME280;41530;52.382;5.270;2023-01-23T03:15:56;103895.31;;;12.92;50.87
55656;BME280;41530;52.382;5.270;2023-01-23T03:18:24;103880.50;;;12.88;51.04
55656;BME280;41530;52.382;5.270;2023-01-23T03:20:53;103884.75;;;12.92;50.86
55656;BME280;41530;52.382;5.270;2023-01-23T03:23:20;103896.19;;;12.93;50.69
55656;BME280;41530;52.382;5.270;2023-01-23T03:25:47;103891.81;;;12.92;50.79
55656;BME280;41530;52.382;5.270;2023-01-23T03:28:14;103886.53;;;12.92;50.97
55656;BME280;41530;52.382;5.270;2023-01-23T03:30:59;103885.69;;;12.91;50.95
55656;BME280;41530;52.382;5.270;2023-01-23T03:33:26;103889.16;;;12.92;50.85
55656;BME280;41530;52.382;5.270;2023-01-23T03:35:53;103883.97;;;12.90;50.81
55656;BME280;41530;52.382;5.270;2023-01-23T03:38:19;103893.63;;;12.91;50.52
55656;BME280;41530;52.382;5.270;2023-01-23T03:40:49;103893.63;;;12.91;50.84
55656;BME280;41530;52.382;5.270;2023-01-23T03:43:34;103899.75;;;12.92;50.84
55656;BME280;41530;52.382;5.270;2023-01-23T03:46:01;103892.81;;;12.89;50.91
55656;BME280;41530;52.382;5.270;2023-01-23T03:48:27;103895.41;;;12.91;50.76
55656;BME280;41530;52.382;5.270;2023-01-23T03:50:54;103892.81;;;12.89;50.69
55656;BME280;41530;52.382;5.270;2023-01-23T03:53:21;103895.53;;;12.86;50.68
55656;BME280;41530;52.382;5.270;2023-01-23T03:55:48;103901.53;;;12.91;50.75
55656;BME280;41530;52.382;5.270;2023-01-23T03:58:15;103905.97;;;12.91;50.62
55656;BME280;41530;52.382;5.270;2023-01-23T04:00:42;103910.31;;;12.92;50.69
55656;BME280;41530;52.382;5.270;2023-01-23T04:03:09;103910.38;;;12.90;50.58
55656;BME280;41530;52.382;5.270;2023-01-23T04:05:36;103913.03;;;12.90;50.62
55656;BME280;41530;52.382;5.270;2023-01-23T04:08:02;103899.84;;;12.89;50.73
55656;BME280;41530;52.382;5.270;2023-01-23T04:10:30;103895.47;;;12.88;50.59
55656;BME280;41530;52.382;5.270;2023-01-23T04:12:57;103900.69;;;12.91;50.55
55656;BME280;41530;52.382;5.270;2023-01-23T04:15:24;103905.97;;;12.91;50.72
55656;BME280;41530;52.382;5.270;2023-01-23T04:17:51;103905.09;;;12.90;50.83
55656;BME280;41530;52.382;5.270;2023-01-23T04:20:18;103894.53;;;12.90;50.86
55656;BME280;41530;52.382;5.270;2023-01-23T04:22:46;103892.81;;;12.89;50.51
55656;BME280;41530;52.382;5.270;2023-01-23T04:25:13;103903.31;;;12.91;50.59
55656;BME280;41530;52.382;5.270;2023-01-23T04:27:40;103904.22;;;12.90;50.51
55656;BME280;41530;52.382;5.270;2023-01-23T04:30:07;103911.25;;;12.91;50.64
55656;BME280;41530;52.382;5.270;2023-01-23T04:32:34;103908.59;;;12.91;50.79
55656;BME280;41530;52.382;5.270;2023-01-23T04:35:02;103906.88;;;12.90;50.77
55656;BME280;41530;52.382;5.270;2023-01-23T04:37:28;103897.25;;;12.87;50.79
55656;BME280;41530;52.382;5.270;2023-01-23T04:39:55;103900.72;;;12.89;50.66
55656;BME280;41530;52.382;5.270;2023-01-23T04:42:22;103901.63;;;12.88;50.76
55656;BME280;41530;52.382;5.270;2023-01-23T04:44:49;103882.53;;;12.78;50.47
55656;BME280;41530;52.382;5.270;2023-01-23T04:47:17;103902.53;;;12.87;50.83
55656;BME280;41530;52.382;5.270;2023-01-23T04:49:44;103899.00;;;12.88;50.61
55656;BME280;41530;52.382;5.270;2023-01-23T04:52:10;103904.28;;;12.88;50.66
55656;BME280;41530;52.382;5.270;2023-01-23T04:54:37;103912.22;;;12.88;50.82
55656;BME280;41530;52.382;5.270;2023-01-23T04:57:03;103907.00;;;12.85;50.57
55656;BME280;41530;52.382;5.270;2023-01-23T04:59:30;103912.16;;;12.90;50.47
55656;BME280;41530;52.382;5.270;2023-01-23T05:01:57;103916.53;;;12.91;50.44
55656;BME280;41530;52.382;5.270;2023-01-23T05:04:24;103919.09;;;12.92;50.65
55656;BME280;41530;52.382;5.270;2023-01-23T05:06:51;103919.97;;;12.93;50.47
55656;BME280;41530;52.382;5.270;2023-01-23T05:09:18;103923.47;;;12.93;50.54
55656;BME280;41530;52.382;5.270;2023-01-23T05:11:44;103931.38;;;12.95;50.57
55656;BME280;41530;52.382;5.270;2023-01-23T05:14:11;103928.72;;;12.95;50.44
55656;BME280;41530;52.382;5.270;2023-01-23T05:16:38;103919.88;;;12.96;50.57
55656;BME280;41530;52.382;5.270;2023-01-23T05:19:05;103919.03;;;12.95;50.32
55656;BME280;41530;52.382;5.270;2023-01-23T05:21:31;103916.41;;;12.94;50.70
55656;BME280;41530;52.382;5.270;2023-01-23T05:23:58;103919.03;;;12.95;50.67
55656;BME280;41530;52.382;5.270;2023-01-23T05:26:25;103916.31;;;12.97;50.63
55656;BME280;41530;52.382;5.270;2023-01-23T05:28:52;103911.97;;;12.96;50.56
55656;BME280;41530;52.382;5.270;2023-01-23T05:31:19;103914.56;;;12.97;50.66
55656;BME280;41530;52.382;5.270;2023-01-23T05:33:45;103911.91;;;12.97;50.27
55656;BME280;41530;52.382;5.270;2023-01-23T05:36:12;103912.78;;;12.98;50.49
55656;BME280;41530;52.382;5.270;2023-01-23T05:38:39;103917.16;;;12.99;50.53
55656;BME280;41530;52.382;5.270;2023-01-23T05:41:06;103912.78;;;12.98;50.25
55656;BME280;41530;52.382;5.270;2023-01-23T05:43:33;103914.56;;;12.97;50.54
55656;BME280;41530;52.382;5.270;2023-01-23T05:46:00;103919.78;;;12.99;50.17
55656;BME280;41530;52.382;5.270;2023-01-23T05:48:27;103922.44;;;12.99;50.70
55656;BME280;41530;52.382;5.270;2023-01-23T05:50:54;103923.31;;;12.99;50.58
55656;BME280;41530;52.382;5.270;2023-01-23T05:53:21;103925.94;;;12.99;50.49
55656;BME280;41530;52.382;5.270;2023-01-23T05:55:47;103921.53;;;13.00;50.43
55656;BME280;41530;52.382;5.270;2023-01-23T05:58:14;103934.75;;;13.00;50.45
55656;BME280;41530;52.382;5.270;2023-01-23T06:00:41;103940.91;;;13.00;50.32
55656;BME280;41530;52.382;5.270;2023-01-23T06:03:08;103945.31;;;13.00;50.47
55656;BME280;41530;52.382;5.270;2023-01-23T06:05:35;103943.53;;;13.00;50.62
55656;BME280;41530;52.382;5.270;2023-01-23T06:08:02;103939.16;;;12.99;50.61
55656;BME280;41530;52.382;5.270;2023-01-23T06:10:28;103931.22;;;12.99;50.37
55656;BME280;41530;52.382;5.270;2023-01-23T06:12:56;103933.06;;;12.97;50.35
55656;BME280;41530;52.382;5.270;2023-01-23T06:15:22;103938.28;;;12.99;50.31
55656;BME280;41530;52.382;5.270;2023-01-23T06:17:49;103944.41;;;13.01;50.40
55656;BME280;41530;52.382;5.270;2023-01-23T06:20:17;103939.97;;;13.01;50.26
55656;BME280;41530;52.382;5.270;2023-01-23T06:22:44;103945.28;;;13.01;50.22
55656;BME280;41530;52.382;5.270;2023-01-23T06:25:11;103953.16;;;13.03;50.61
55656;BME280;41530;52.382;5.270;2023-01-23T06:27:39;103949.75;;;12.99;50.59
55656;BME280;41530;52.382;5.270;2023-01-23T06:30:07;103957.53;;;13.04;50.31
55656;BME280;41530;52.382;5.270;2023-01-23T06:32:34;103956.63;;;13.05;50.57
55656;BME280;41530;52.382;5.270;2023-01-23T06:35:01;103951.38;;;13.03;50.26
55656;BME280;41530;52.382;5.270;2023-01-23T06:37:29;103957.53;;;13.04;50.45
55656;BME280;41530;52.382;5.270;2023-01-23T06:39:56;103956.66;;;13.03;50.24
55656;BME280;41530;52.382;5.270;2023-01-23T06:42:23;103954.94;;;13.02;50.11
55656;BME280;41530;52.382;5.270;2023-01-23T06:44:50;103955.81;;;13.03;50.19
55656;BME280;41530;52.382;5.270;2023-01-23T06:47:17;103965.56;;;13.01;50.14
55656;BME280;41530;52.382;5.270;2023-01-23T06:49:45;103954.97;;;13.01;50.30
55656;BME280;41530;52.382;5.270;2023-01-23T06:52:12;103954.97;;;13.01;50.18
55656;BME280;41530;52.382;5.270;2023-01-23T06:54:39;103951.47;;;13.00;50.05
55656;BME280;41530;52.382;5.270;2023-01-23T06:57:06;103954.97;;;13.01;50.21
55656;BME280;41530;52.382;5.270;2023-01-23T06:59:33;103956.78;;;12.99;50.28
55656;BME280;41530;52.382;5.270;2023-01-23T07:01:59;103955.03;;;12.99;50.44
55656;BME280;41530;52.382;5.270;2023-01-23T07:04:27;103955.03;;;12.99;50.48
55656;BME280;41530;52.382;5.270;2023-01-23T07:06:54;103964.69;;;13.00;50.50
55656;BME280;41530;52.382;5.270;2023-01-23T07:09:20;103969.09;;;13.00;50.58
55656;BME280;41530;52.382;5.270;2023-01-23T07:11:47;103965.59;;;12.99;50.27
55656;BME280;41530;52.382;5.270;2023-01-23T07:14:14;103961.22;;;12.98;50.31
55656;BME280;41530;52.382;5.270;2023-01-23T07:16:41;103967.38;;;12.99;50.39
55656;BME280;41530;52.382;5.270;2023-01-23T07:19:08;103960.38;;;12.96;50.23
55656;BME280;41530;52.382;5.270;2023-01-23T07:21:34;103970.91;;;12.98;50.58
55656;BME280;41530;52.382;5.270;2023-01-23T07:24:01;103977.97;;;12.97;50.35
55656;BME280;41530;52.382;5.270;2023-01-23T07:26:28;103977.13;;;12.97;50.43
55656;BME280;41530;52.382;5.270;2023-01-23T07:28:55;103972.81;;;12.93;50.45
55656;BME280;41530;52.382;5.270;2023-01-23T07:31:21;103972.75;;;12.96;50.43
55656;BME280;41530;52.382;5.270;2023-01-23T07:33:48;103977.19;;;12.94;50.18
55656;BME280;41530;52.382;5.270;2023-01-23T07:36:15;103975.38;;;12.96;50.28
55656;BME280;41530;52.382;5.270;2023-01-23T07:38:43;103979.84;;;12.94;50.37
55656;BME280;41530;52.382;5.270;2023-01-23T07:41:10;103982.53;;;12.92;50.04
55656;BME280;41530;52.382;5.270;2023-01-23T07:43:37;103997.44;;;12.95;50.14
55656;BME280;41530;52.382;5.270;2023-01-23T07:46:04;103995.69;;;12.94;50.44
55656;BME280;41530;52.382;5.270;2023-01-23T07:48:31;103997.44;;;12.95;50.27
55656;BME280;41530;52.382;5.270;2023-01-23T07:51:01;104008.00;;;12.95;50.19
55656;BME280;41530;52.382;5.270;2023-01-23T07:53:28;104010.66;;;12.95;50.25
55656;BME280;41530;52.382;5.270;2023-01-23T07:55:55;104001.03;;;12.92;50.27
55656;BME280;41530;52.382;5.270;2023-01-23T07:58:22;103999.25;;;12.93;50.39
55656;BME280;41530;52.382;5.270;2023-01-23T08:00:49;103999.22;;;12.94;50.55
55656;BME280;41530;52.382;5.270;2023-01-23T08:03:16;104002.72;;;12.95;50.46
55656;BME280;41530;52.382;5.270;2023-01-23T08:05:47;104008.00;;;12.95;50.34
55656;BME280;41530;52.382;5.270;2023-01-23T08:08:14;103997.47;;;12.93;50.39
55656;BME280;41530;52.382;5.270;2023-01-23T08:10:41;104015.06;;;12.94;50.46
55656;BME280;41530;52.382;5.270;2023-01-23T08:13:08;104012.44;;;12.94;50.48
55656;BME280;41530;52.382;5.270;2023-01-23T08:15:36;104012.34;;;12.97;50.60
55656;BME280;41530;52.382;5.270;2023-01-23T08:18:04;104021.09;;;12.99;50.79
55656;BME280;41530;52.382;5.270;2023-01-23T08:20:31;104026.31;;;13.02;50.62
55656;BME280;41530;52.382;5.270;2023-01-23T08:22:58;104031.44;;;13.07;50.70
55656;BME280;41530;52.382;5.270;2023-01-23T08:25:27;104020.78;;;13.10;50.74
55656;BME280;41530;52.382;5.270;2023-01-23T08:27:55;104024.25;;;13.12;50.67
55656;BME280;41530;52.382;5.270;2023-01-23T08:30:22;104031.22;;;13.16;50.86
55656;BME280;41530;52.382;5.270;2023-01-23T08:32:49;104040.75;;;13.20;50.90
55656;BME280;41530;52.382;5.270;2023-01-23T08:35:16;104043.38;;;13.22;50.89
55656;BME280;41530;52.382;5.270;2023-01-23T08:37:43;104048.56;;;13.25;50.62
55656;BME280;41530;52.382;5.270;2023-01-23T08:40:11;104047.63;;;13.27;50.71
55656;BME280;41530;52.382;5.270;2023-01-23T08:42:38;104040.50;;;13.29;50.57
55656;BME280;41530;52.382;5.270;2023-01-23T08:45:05;104041.34;;;13.31;50.54
55656;BME280;41530;52.382;5.270;2023-01-23T08:47:32;104043.03;;;13.32;50.73
55656;BME280;41530;52.382;5.270;2023-01-23T08:50:03;104042.25;;;13.30;50.63
55656;BME280;41530;52.382;5.270;2023-01-23T08:52:31;104053.53;;;13.35;50.54
55656;BME280;41530;52.382;5.270;2023-01-23T08:54:59;104062.28;;;13.37;50.57
55656;BME280;41530;52.382;5.270;2023-01-23T08:57:27;104064.97;;;13.36;50.64
55656;BME280;41530;52.382;5.270;2023-01-23T08:59:54;104063.16;;;13.38;50.63
55656;BME280;41530;52.382;5.270;2023-01-23T09:02:20;104062.25;;;13.39;50.48
55656;BME280;41530;52.382;5.270;2023-01-23T09:04:49;104063.97;;;13.40;50.53
55656;BME280;41530;52.382;5.270;2023-01-23T09:07:16;104064.84;;;13.40;50.48
55656;BME280;41530;52.382;5.270;2023-01-23T09:09:43;104071.00;;;13.41;50.58
55656;BME280;41530;52.382;5.270;2023-01-23T09:12:09;104077.16;;;13.41;50.62
55656;BME280;41530;52.382;5.270;2023-01-23T09:14:36;104074.50;;;13.41;50.60
55656;BME280;41530;52.382;5.270;2023-01-23T09:17:03;104078.03;;;13.42;50.44
55656;BME280;41530;52.382;5.270;2023-01-23T09:19:31;104078.03;;;13.42;50.47
55656;BME280;41530;52.382;5.270;2023-01-23T09:21:58;104072.75;;;13.42;50.36
55656;BME280;41530;52.382;5.270;2023-01-23T09:24:25;104073.59;;;13.42;50.49
55656;BME280;41530;52.382;5.270;2023-01-23T09:26:52;104073.59;;;13.42;50.36
55656;BME280;41530;52.382;5.270;2023-01-23T09:29:18;104075.34;;;13.43;50.40
55656;BME280;41530;52.382;5.270;2023-01-23T09:31:45;104078.03;;;13.42;50.33
55656;BME280;41530;52.382;5.270;2023-01-23T09:34:12;104074.50;;;13.41;50.54
55656;BME280;41530;52.382;5.270;2023-01-23T09:36:43;104071.88;;;13.41;50.47
55656;BME280;41530;52.382;5.270;2023-01-23T09:39:09;104073.72;;;13.38;50.26
55656;BME280;41530;52.382;5.270;2023-01-23T09:41:39;104071.09;;;13.38;50.22
55656;BME280;41530;52.382;5.270;2023-01-23T09:44:10;104078.03;;;13.42;50.47
55656;BME280;41530;52.382;5.270;2023-01-23T09:46:58;104079.97;;;13.35;50.23
55656;BME280;41530;52.382;5.270;2023-01-23T09:52:11;104080.00;;;13.34;50.38
55656;BME280;41530;52.382;5.270;2023-01-23T09:57:23;104097.53;;;13.38;50.35
55656;BME280;41530;52.382;5.270;2023-01-23T09:59:55;104089.59;;;13.38;50.45
55656;BME280;41530;52.382;5.270;2023-01-23T10:02:26;104084.44;;;13.33;50.51
55656;BME280;41530;52.382;5.270;2023-01-23T10:04:55;104084.41;;;13.35;50.47
55656;BME280;41530;52.382;5.270;2023-01-23T10:13:10;104069.41;;;13.35;50.53
55656;BME280;41530;52.382;5.270;2023-01-23T10:22:03;104071.00;;;13.41;50.43
55656;BME280;41530;52.382;5.270;2023-01-23T10:24:50;104063.03;;;13.42;50.85
55656;BME280;41530;52.382;5.270;2023-01-23T10:32:58;104062.81;;;13.48;50.34
55656;BME280;41530;52.382;5.270;2023-01-23T10:35:36;104057.47;;;13.50;50.51
55656;BME280;41530;52.382;5.270;2023-01-23T10:41:10;104051.16;;;13.55;50.33
55656;BME280;41530;52.382;5.270;2023-01-23T10:43:40;104052.88;;;13.57;50.65
55656;BME280;41530;52.382;5.270;2023-01-23T10:46:16;104054.63;;;13.58;50.36
55656;BME280;41530;52.382;5.270;2023-01-23T10:48:50;104070.38;;;13.61;50.34
55656;BME280;41530;52.382;5.270;2023-01-23T10:54:19;104072.94;;;13.64;50.57
55656;BME280;41530;52.382;5.270;2023-01-23T10:57:17;104075.56;;;13.64;50.68
55656;BME280;41530;52.382;5.270;2023-01-23T11:04:54;104070.91;;;13.72;50.35
55656;BME280;41530;52.382;5.270;2023-01-23T11:07:24;104074.38;;;13.74;50.42
55656;BME280;41530;52.382;5.270;2023-01-23T11:09:56;104067.25;;;13.76;50.47
55656;BME280;41530;52.382;5.270;2023-01-23T11:12:27;104059.31;;;13.76;50.36
55656;BME280;41530;52.382;5.270;2023-01-23T11:15:25;104068.97;;;13.77;50.21
55656;BME280;41530;52.382;5.270;2023-01-23T11:18:00;104061.88;;;13.79;50.34
55656;BME280;41530;52.382;5.270;2023-01-23T11:20:28;104061.88;;;13.79;50.32
55656;BME280;41530;52.382;5.270;2023-01-23T11:25:58;104065.38;;;13.79;50.42
55656;BME280;41530;52.382;5.270;2023-01-23T11:28:31;104070.63;;;13.81;50.36
55656;BME280;41530;52.382;5.270;2023-01-23T11:31:08;104061.00;;;13.78;50.22
55656;BME280;41530;52.382;5.270;2023-01-23T11:34:04;104067.94;;;13.82;50.32
55656;BME280;41530;52.382;5.270;2023-01-23T11:37:03;104060.97;;;13.80;50.11
55656;BME280;41530;52.382;5.270;2023-01-23T11:39:56;104061.72;;;13.83;50.18
55656;BME280;41530;52.382;5.270;2023-01-23T11:42:27;104061.72;;;13.83;50.38
55656;BME280;41530;52.382;5.270;2023-01-23T11:44:57;104054.56;;;13.85;50.54
55656;BME280;41530;52.382;5.270;2023-01-23T11:52:56;104052.81;;;13.86;50.50
55656;BME280;41530;52.382;5.270;2023-01-23T12:07:22;104060.66;;;13.89;50.56
55656;BME280;41530;52.382;5.270;2023-01-23T12:09:57;104065.91;;;13.90;50.42
55656;BME280;41530;52.382;5.270;2023-01-23T12:15:51;104059.69;;;13.91;50.42
55656;BME280;41530;52.382;5.270;2023-01-23T12:18:36;104051.75;;;13.91;50.53
55656;BME280;41530;52.382;5.270;2023-01-23T12:21:18;104051.69;;;13.93;50.47
55656;BME280;41530;52.382;5.270;2023-01-23T12:23:58;104049.09;;;13.91;50.51
55656;BME280;41530;52.382;5.270;2023-01-23T12:26:33;104055.25;;;13.92;50.83
55656;BME280;41530;52.382;5.270;2023-01-23T12:34:14;104060.41;;;13.97;50.67
55656;BME280;41530;52.382;5.270;2023-01-23T12:39:56;104071.88;;;13.97;50.38
55656;BME280;41530;52.382;5.270;2023-01-23T12:42:37;104076.22;;;13.98;50.61
55656;BME280;41530;52.382;5.270;2023-01-23T12:47:40;104068.28;;;13.98;50.53
55656;BME280;41530;52.382;5.270;2023-01-23T12:50:19;104074.41;;;14.00;50.48
55656;BME280;41530;52.382;5.270;2023-01-23T12:52:52;104077.00;;;14.02;50.70
55656;BME280;41530;52.382;5.270;2023-01-23T12:58:15;104071.66;;;14.03;50.53
55656;BME280;41530;52.382;5.270;2023-01-23T13:01:11;104062.03;;;14.01;50.46
55656;BME280;41530;52.382;5.270;2023-01-23T13:03:44;104073.38;;;14.04;50.67
55656;BME280;41530;52.382;5.270;2023-01-23T13:12:06;104062.97;;;13.98;50.28
55656;BME280;41530;52.382;5.270;2023-01-23T13:14:39;104065.50;;;14.03;50.31
55656;BME280;41530;52.382;5.270;2023-01-23T13:23:32;104074.25;;;14.05;50.24
55656;BME280;41530;52.382;5.270;2023-01-23T13:28:41;104063.63;;;14.06;50.30
55656;BME280;41530;52.382;5.270;2023-01-23T13:31:43;104067.13;;;14.07;50.29
55656;BME280;41530;52.382;5.270;2023-01-23T13:36:46;104062.69;;;14.07;50.36
55656;BME280;41530;52.382;5.270;2023-01-23T13:41:40;104060.00;;;14.09;50.37
55656;BME280;41530;52.382;5.270;2023-01-23T13:44:25;104052.06;;;14.09;50.26
55656;BME280;41530;52.382;5.270;2023-01-23T13:50:25;104030.88;;;14.09;50.00
55656;BME280;41530;52.382;5.270;2023-01-23T13:53:21;104024.69;;;14.10;50.03
55656;BME280;41530;52.382;5.270;2023-01-23T13:56:22;104004.47;;;14.07;50.11
55656;BME280;41530;52.382;5.270;2023-01-23T13:59:25;104005.31;;;14.08;50.11
55656;BME280;41530;52.382;5.270;2023-01-23T14:05:16;103998.97;;;14.12;50.08
55656;BME280;41530;52.382;5.270;2023-01-23T14:08:01;104005.16;;;14.12;50.20
55656;BME280;41530;52.382;5.270;2023-01-23T14:10:47;103999.84;;;14.12;49.84
55656;BME280;41530;52.382;5.270;2023-01-23T14:13:29;103996.28;;;14.13;50.12
55656;BME280;41530;52.382;5.270;2023-01-23T14:16:12;104005.97;;;14.14;50.15
55656;BME280;41530;52.382;5.270;2023-01-23T14:18:57;104010.38;;;14.14;49.97
55656;BME280;41530;52.382;5.270;2023-01-23T14:21:53;104017.41;;;14.15;50.03
55656;BME280;41530;52.382;5.270;2023-01-23T14:24:47;104021.81;;;14.16;50.01
55656;BME280;41530;52.382;5.270;2023-01-23T14:27:31;104027.09;;;14.16;50.08
55656;BME280;41530;52.382;5.270;2023-01-23T14:30:16;104031.47;;;14.17;50.00
55656;BME280;41530;52.382;5.270;2023-01-23T14:32:44;104029.78;;;14.14;50.22
55656;BME280;41530;52.382;5.270;2023-01-23T14:35:19;104034.06;;;14.18;49.88
55656;BME280;41530;52.382;5.270;2023-01-23T14:37:49;104027.16;;;14.14;49.96
55656;BME280;41530;52.382;5.270;2023-01-23T14:40:19;104026.19;;;14.17;49.97
55656;BME280;41530;52.382;5.270;2023-01-23T14:43:04;104019.91;;;14.19;49.77
55656;BME280;41530;52.382;5.270;2023-01-23T14:45:34;104025.22;;;14.19;50.02
55656;BME280;41530;52.382;5.270;2023-01-23T14:48:03;104025.22;;;14.19;49.94
55656;BME280;41530;52.382;5.270;2023-01-23T14:50:33;104028.69;;;14.21;50.10
55656;BME280;41530;52.382;5.270;2023-01-23T14:53:05;104028.69;;;14.21;49.86
55656;BME280;41530;52.382;5.270;2023-01-23T14:55:39;104033.06;;;14.22;49.87